sensor_id;sensor_type;location;lat;lon;timestamp;pressure;altitude;pressure_sealevel;temperature;humidity
6514;BME280;3290;47.716;9.070;2024-01-30T00:01:50;98488.66;;;2.28;100.00
6514;BME280;3290;47.716;9.070;2024-01-30T00:04:16;98484.56;;;2.05;100.00
6514;BME280;3290;47.716;9.070;2024-01-30T00:06:42;98486.09;;;2.28;100.00
6514;BME280;3290;47.716;9.070;2024-01-30T00:09:08;98486.38;;;2.34;100.00
6514;BME280;3290;47.716;9.070;2024-01-30T00:11:34;98481.97;;;2.25;100.00
6514;BME280;3290;47.716;9.070;2024-01-30T00:13:59;98486.66;;;2.31;100.00
6514;BME280;3290;47.716;9.070;2024-01-30T00:16:25;98487.72;;;2.08;100.00
6514;BME280;3290;47.716;9.070;2024-01-30T00:18:51;98481.81;;;2.06;100.00
6514;BME280;3290;47.716;9.070;2024-01-30T00:21:17;98479.50;;;2.03;100.00
6514;BME280;3290;47.716;9.070;2024-01-30T00:23:42;98471.63;;;2.05;100.00
6514;BME280;3290;47.716;9.070;2024-01-30T00:26:08;98479.69;;;2.11;100.00
6514;BME280;3290;47.716;9.070;2024-01-30T00:28:33;98485.06;;;2.19;100.00
6514;BME280;3290;47.716;9.070;2024-01-30T00:30:58;98479.44;;;2.14;100.00
6514;BME280;3290;47.716;9.070;2024-01-30T00:33:24;98478.41;;;2.06;100.00
6514;BME280;3290;47.716;9.070;2024-01-30T00:35:49;98477.06;;;2.22;100.00
6514;BME280;3290;47.716;9.070;2024-01-30T00:38:15;98477.16;;;2.00;100.00
6514;BME280;3290;47.716;9.070;2024-01-30T00:40:40;98480.81;;;1.98;100.00
6514;BME280;3290;47.716;9.070;2024-01-30T00:43:06;98485.66;;;1.92;100.00
6514;BME280;3290;47.716;9.070;2024-01-30T00:45:31;98484.38;;;1.86;100.00
6514;BME280;3290;47.716;9.070;2024-01-30T00:47:56;98482.47;;;2.19;100.00
6514;BME280;3290;47.716;9.070;2024-01-30T00:50:22;98478.06;;;2.10;100.00
6514;BME280;3290;47.716;9.070;2024-01-30T00:52:47;98488.56;;;1.98;100.00
6514;BME280;3290;47.716;9.070;2024-01-30T00:55:13;98485.38;;;2.05;100.00
6514;BME280;3290;47.716;9.070;2024-01-30T00:57:39;98484.75;;;1.82;100.00
6514;BME280;3290;47.716;9.070;2024-01-30T01:00:05;98487.09;;;1.85;100.00
6514;BME280;3290;47.716;9.070;2024-01-30T01:02:34;98484.72;;;1.93;100.00
6514;BME280;3290;47.716;9.070;2024-01-30T01:04:59;98488.47;;;1.89;100.00
6514;BME280;3290;47.716;9.070;2024-01-30T01:07:24;98484.03;;;1.80;100.00
6514;BME280;3290;47.716;9.070;2024-01-30T01:09:50;98485.41;;;1.95;100.00
6514;BME280;3290;47.716;9.070;2024-01-30T01:12:15;98485.44;;;1.84;100.00
6514;BME280;3290;47.716;9.070;2024-01-30T01:14:40;98490.19;;;1.68;100.00
6514;BME280;3290;47.716;9.070;2024-01-30T01:17:07;98489.72;;;1.74;100.00
6514;BME280;3290;47.716;9.070;2024-01-30T01:19:32;98495.53;;;1.87;100.00
6514;BME280;3290;47.716;9.070;2024-01-30T01:21:58;98491.56;;;1.83;100.00
6514;BME280;3290;47.716;9.070;2024-01-30T01:24:23;98486.72;;;1.89;100.00
6514;BME280;3290;47.716;9.070;2024-01-30T01:26:49;98488.00;;;1.84;100.00
6514;BME280;3290;47.716;9.070;2024-01-30T01:29:14;98482.38;;;1.90;100.00
6514;BME280;3290;47.716;9.070;2024-01-30T01:31:41;98482.78;;;2.05;100.00
6514;BME280;3290;47.716;9.070;2024-01-30T01:34:13;98484.31;;;1.77;100.00
6514;BME280;3290;47.716;9.070;2024-01-30T01:36:39;98482.84;;;1.84;100.00
6514;BME280;3290;47.716;9.070;2024-01-30T01:39:04;98487.72;;;1.98;100.00
6514;BME280;3290;47.716;9.070;2024-01-30T01:41:31;98491.91;;;2.09;100.00
6514;BME280;3290;47.716;9.070;2024-01-30T01:43:57;98491.16;;;1.98;100.00
6514;BME280;3290;47.716;9.070;2024-01-30T01:46:23;98487.94;;;2.05;100.00
6514;BME280;3290;47.716;9.070;2024-01-30T01:48:48;98479.97;;;1.98;100.00
6514;BME280;3290;47.716;9.070;2024-01-30T01:51:14;98484.91;;;2.00;100.00
6514;BME280;3290;47.716;9.070;2024-01-30T01:53:40;98484.09;;;2.00;100.00
6514;BME280;3290;47.716;9.070;2024-01-30T01:56:06;98485.59;;;2.02;100.00
6514;BME280;3290;47.716;9.070;2024-01-30T01:58:32;98482.56;;;1.98;100.00
6514;BME280;3290;47.716;9.070;2024-01-30T02:00:58;98481.00;;;2.06;100.00
6514;BME280;3290;47.716;9.070;2024-01-30T02:03:24;98483.53;;;2.17;100.00
6514;BME280;3290;47.716;9.070;2024-01-30T02:05:50;98484.84;;;2.11;100.00
6514;BME280;3290;47.716;9.070;2024-01-30T02:08:16;98487.88;;;2.16;100.00
6514;BME280;3290;47.716;9.070;2024-01-30T02:10:41;98483.91;;;2.12;100.00
6514;BME280;3290;47.716;9.070;2024-01-30T02:13:07;98480.03;;;1.87;100.00
6514;BME280;3290;47.716;9.070;2024-01-30T02:15:32;98483.72;;;2.04;100.00
6514;BME280;3290;47.716;9.070;2024-01-30T02:17:57;98482.72;;;1.96;100.00
6514;BME280;3290;47.716;9.070;2024-01-30T02:20:24;98482.09;;;2.03;100.00
6514;BME280;3290;47.716;9.070;2024-01-30T02:22:52;98478.97;;;1.89;100.00
6514;BME280;3290;47.716;9.070;2024-01-30T02:25:19;98476.81;;;1.94;100.00
6514;BME280;3290;47.716;9.070;2024-01-30T02:27:45;98481.69;;;1.88;100.00
6514;BME280;3290;47.716;9.070;2024-01-30T02:30:10;98480.88;;;2.07;100.00
6514;BME280;3290;47.716;9.070;2024-01-30T02:32:36;98481.81;;;2.06;100.00
6514;BME280;3290;47.716;9.070;2024-01-30T02:35:01;98485.44;;;1.84;100.00
6514;BME280;3290;47.716;9.070;2024-01-30T02:37:27;98473.53;;;1.92;100.00
6514;BME280;3290;47.716;9.070;2024-01-30T02:39:53;98481.69;;;1.88;100.00
6514;BME280;3290;47.716;9.070;2024-01-30T02:42:18;98475.81;;;1.86;100.00
6514;BME280;3290;47.716;9.070;2024-01-30T02:44:43;98475.81;;;1.86;100.00
6514;BME280;3290;47.716;9.070;2024-01-30T02:47:09;98479.16;;;1.77;100.00
6514;BME280;3290;47.716;9.070;2024-01-30T02:49:34;98475.75;;;1.65;100.00
6514;BME280;3290;47.716;9.070;2024-01-30T02:51:59;98479.03;;;1.67;100.00
6514;BME280;3290;47.716;9.070;2024-01-30T02:54:25;98476.09;;;1.72;100.00
6514;BME280;3290;47.716;9.070;2024-01-30T02:56:50;98471.28;;;1.98;100.00
6514;BME280;3290;47.716;9.070;2024-01-30T02:59:16;98478.66;;;1.83;100.00
6514;BME280;3290;47.716;9.070;2024-01-30T03:01:44;98476.50;;;1.88;100.00
6514;BME280;3290;47.716;9.070;2024-01-30T03:04:10;98466.66;;;1.82;100.00
6514;BME280;3290;47.716;9.070;2024-01-30T03:06:36;98473.41;;;1.73;100.00
6514;BME280;3290;47.716;9.070;2024-01-30T03:09:01;98477.84;;;1.71;100.00
6514;BME280;3290;47.716;9.070;2024-01-30T03:11:27;98473.72;;;1.80;100.00
6514;BME280;3290;47.716;9.070;2024-01-30T03:13:52;98466.69;;;1.71;100.00
6514;BME280;3290;47.716;9.070;2024-01-30T03:16:18;98470.78;;;1.84;100.00
6514;BME280;3290;47.716;9.070;2024-01-30T03:18:43;98473.13;;;1.76;100.00
6514;BME280;3290;47.716;9.070;2024-01-30T03:21:08;98468.81;;;1.66;100.00
6514;BME280;3290;47.716;9.070;2024-01-30T03:23:33;98466.00;;;1.69;100.00
6514;BME280;3290;47.716;9.070;2024-01-30T03:25:59;98467.19;;;1.65;100.00
6514;BME280;3290;47.716;9.070;2024-01-30T03:28:24;98465.75;;;2.03;100.00
6514;BME280;3290;47.716;9.070;2024-01-30T03:30:49;98466.66;;;1.82;100.00
6514;BME280;3290;47.716;9.070;2024-01-30T03:33:15;98470.31;;;1.37;100.00
6514;BME280;3290;47.716;9.070;2024-01-30T03:35:40;98473.06;;;1.67;100.00
6514;BME280;3290;47.716;9.070;2024-01-30T03:38:05;98465.69;;;1.52;100.00
6514;BME280;3290;47.716;9.070;2024-01-30T03:40:31;98470.94;;;1.72;100.00
6514;BME280;3290;47.716;9.070;2024-01-30T03:42:56;98472.88;;;1.48;100.00
6514;BME280;3290;47.716;9.070;2024-01-30T03:45:22;98470.09;;;1.40;100.00
6514;BME280;3290;47.716;9.070;2024-01-30T03:47:47;98466.97;;;1.57;100.00
6514;BME280;3290;47.716;9.070;2024-01-30T03:50:12;98461.00;;;1.57;100.00
6514;BME280;3290;47.716;9.070;2024-01-30T03:52:38;98457.34;;;1.59;100.00
6514;BME280;3290;47.716;9.070;2024-01-30T03:55:04;98462.19;;;1.53;100.00
6514;BME280;3290;47.716;9.070;2024-01-30T03:57:30;98465.31;;;1.67;100.00
6514;BME280;3290;47.716;9.070;2024-01-30T03:59:55;98466.41;;;1.85;100.00
6514;BME280;3290;47.716;9.070;2024-01-30T04:02:20;98456.66;;;1.57;100.00
6514;BME280;3290;47.716;9.070;2024-01-30T04:04:46;98466.34;;;1.64;100.00
6514;BME280;3290;47.716;9.070;2024-01-30T04:07:11;98462.72;;;1.67;100.00
6514;BME280;3290;47.716;9.070;2024-01-30T04:09:38;98462.63;;;1.68;100.00
6514;BME280;3290;47.716;9.070;2024-01-30T04:12:03;98466.00;;;1.69;100.00
6514;BME280;3290;47.716;9.070;2024-01-30T04:14:29;98466.97;;;1.57;100.00
6514;BME280;3290;47.716;9.070;2024-01-30T04:16:54;98465.66;;;1.62;100.00
6514;BME280;3290;47.716;9.070;2024-01-30T04:19:19;98467.25;;;1.54;100.00
6514;BME280;3290;47.716;9.070;2024-01-30T04:21:45;98466.00;;;1.69;100.00
6514;BME280;3290;47.716;9.070;2024-01-30T04:24:10;98463.03;;;1.84;100.00
6514;BME280;3290;47.716;9.070;2024-01-30T04:26:36;98466.59;;;1.72;100.00
6514;BME280;3290;47.716;9.070;2024-01-30T04:29:02;98462.50;;;1.59;100.00
6514;BME280;3290;47.716;9.070;2024-01-30T04:31:27;98460.19;;;1.56;100.00
6514;BME280;3290;47.716;9.070;2024-01-30T04:33:53;98459.28;;;1.77;100.00
6514;BME280;3290;47.716;9.070;2024-01-30T04:36:18;98456.59;;;1.79;100.00
6514;BME280;3290;47.716;9.070;2024-01-30T04:38:43;98452.06;;;1.92;100.00
6514;BME280;3290;47.716;9.070;2024-01-30T04:41:09;98459.47;;;1.65;100.00
6514;BME280;3290;47.716;9.070;2024-01-30T04:43:34;98461.41;;;1.72;100.00
6514;BME280;3290;47.716;9.070;2024-01-30T04:46:01;98457.97;;;1.83;100.00
6514;BME280;3290;47.716;9.070;2024-01-30T04:48:26;98462.41;;;1.92;100.00
6514;BME280;3290;47.716;9.070;2024-01-30T04:50:52;98460.84;;;2.00;100.00
6514;BME280;3290;47.716;9.070;2024-01-30T04:53:17;98457.88;;;2.04;100.00
6514;BME280;3290;47.716;9.070;2024-01-30T04:55:43;98460.09;;;1.78;100.00
6514;BME280;3290;47.716;9.070;2024-01-30T04:58:08;98463.38;;;1.80;100.00
6514;BME280;3290;47.716;9.070;2024-01-30T05:00:33;98457.44;;;2.20;100.00
6514;BME280;3290;47.716;9.070;2024-01-30T05:02:59;98461.41;;;2.03;100.00
6514;BME280;3290;47.716;9.070;2024-01-30T05:05:24;98456.31;;;1.82;100.00
6514;BME280;3290;47.716;9.070;2024-01-30T05:07:49;98463.66;;;1.77;100.00
6514;BME280;3290;47.716;9.070;2024-01-30T05:10:15;98464.19;;;1.91;100.00
6514;BME280;3290;47.716;9.070;2024-01-30T05:12:40;98471.00;;;1.81;100.00
6514;BME280;3290;47.716;9.070;2024-01-30T05:15:06;98475.94;;;1.84;100.00
6514;BME280;3290;47.716;9.070;2024-01-30T05:17:31;98477.13;;;1.80;100.00
6514;BME280;3290;47.716;9.070;2024-01-30T05:19:57;98473.59;;;2.12;100.00
6514;BME280;3290;47.716;9.070;2024-01-30T05:22:22;98482.91;;;2.04;100.00
6514;BME280;3290;47.716;9.070;2024-01-30T05:24:48;98482.03;;;2.14;100.00
6514;BME280;3290;47.716;9.070;2024-01-30T05:27:13;98482.50;;;1.88;100.00
6514;BME280;3290;47.716;9.070;2024-01-30T05:29:39;98478.88;;;1.80;100.00
6514;BME280;3290;47.716;9.070;2024-01-30T05:32:05;98481.09;;;1.84;100.00
6514;BME280;3290;47.716;9.070;2024-01-30T05:34:31;98489.91;;;1.51;100.00
6514;BME280;3290;47.716;9.070;2024-01-30T05:36:56;98487.59;;;1.79;100.00
6514;BME280;3290;47.716;9.070;2024-01-30T05:39:21;98485.19;;;1.87;100.00
6514;BME280;3290;47.716;9.070;2024-01-30T05:41:47;98488.91;;;1.73;100.00
6514;BME280;3290;47.716;9.070;2024-01-30T05:44:12;98488.56;;;1.67;100.00
6514;BME280;3290;47.716;9.070;2024-01-30T05:46:37;98485.84;;;1.68;100.00
6514;BME280;3290;47.716;9.070;2024-01-30T05:49:03;98485.53;;;1.51;100.00
6514;BME280;3290;47.716;9.070;2024-01-30T05:51:28;98492.47;;;1.51;100.00
6514;BME280;3290;47.716;9.070;2024-01-30T05:53:54;98486.66;;;1.69;100.00
6514;BME280;3290;47.716;9.070;2024-01-30T05:56:19;98485.25;;;1.76;100.00
6514;BME280;3290;47.716;9.070;2024-01-30T05:58:45;98487.31;;;1.82;100.00
6514;BME280;3290;47.716;9.070;2024-01-30T06:01:10;98483.72;;;1.73;100.00
6514;BME280;3290;47.716;9.070;2024-01-30T06:03:35;98486.72;;;1.89;100.00
6514;BME280;3290;47.716;9.070;2024-01-30T06:06:01;98498.88;;;1.67;100.00
6514;BME280;3290;47.716;9.070;2024-01-30T06:08:26;98497.06;;;1.78;100.00
6514;BME280;3290;47.716;9.070;2024-01-30T06:10:52;98488.91;;;1.73;100.00
6514;BME280;3290;47.716;9.070;2024-01-30T06:13:17;98495.34;;;1.68;100.00
6514;BME280;3290;47.716;9.070;2024-01-30T06:15:43;98495.81;;;1.73;100.00
6514;BME280;3290;47.716;9.070;2024-01-30T06:18:08;98495.91;;;1.71;100.00
6514;BME280;3290;47.716;9.070;2024-01-30T06:20:34;98489.06;;;1.61;100.00
6514;BME280;3290;47.716;9.070;2024-01-30T06:22:59;98494.53;;;1.67;100.00
6514;BME280;3290;47.716;9.070;2024-01-30T06:25:25;98492.91;;;1.98;100.00
6514;BME280;3290;47.716;9.070;2024-01-30T06:27:50;98491.09;;;1.78;100.00
6514;BME280;3290;47.716;9.070;2024-01-30T06:30:15;98489.75;;;1.63;100.00
6514;BME280;3290;47.716;9.070;2024-01-30T06:32:41;98497.53;;;1.41;100.00
6514;BME280;3290;47.716;9.070;2024-01-30T06:35:06;98488.06;;;1.73;100.00
6514;BME280;3290;47.716;9.070;2024-01-30T06:37:32;98490.53;;;2.26;100.00
6514;BME280;3290;47.716;9.070;2024-01-30T06:39:57;98488.63;;;2.07;100.00
6514;BME280;3290;47.716;9.070;2024-01-30T06:42:22;98491.31;;;1.86;100.00
6514;BME280;3290;47.716;9.070;2024-01-30T06:44:48;98497.41;;;1.85;100.00
6514;BME280;3290;47.716;9.070;2024-01-30T06:47:13;98497.00;;;1.69;100.00
6514;BME280;3290;47.716;9.070;2024-01-30T06:49:39;98499.56;;;1.69;100.00
6514;BME280;3290;47.716;9.070;2024-01-30T06:52:07;98504.06;;;1.67;100.00
6514;BME280;3290;47.716;9.070;2024-01-30T06:54:33;98499.66;;;1.89;100.00
6514;BME280;3290;47.716;9.070;2024-01-30T06:56:59;98507.25;;;1.91;100.00
6514;BME280;3290;47.716;9.070;2024-01-30T06:59:24;98508.31;;;1.88;100.00
6514;BME280;3290;47.716;9.070;2024-01-30T07:01:50;98516.13;;;1.77;100.00
6514;BME280;3290;47.716;9.070;2024-01-30T07:04:15;98503.50;;;1.84;100.00
6514;BME280;3290;47.716;9.070;2024-01-30T07:06:41;98506.78;;;2.17;100.00
6514;BME280;3290;47.716;9.070;2024-01-30T07:09:07;98514.66;;;1.95;100.00
6514;BME280;3290;47.716;9.070;2024-01-30T07:11:33;98512.19;;;1.94;100.00
6514;BME280;3290;47.716;9.070;2024-01-30T07:13:59;98522.50;;;1.94;100.00
6514;BME280;3290;47.716;9.070;2024-01-30T07:16:24;98518.16;;;1.94;100.00
6514;BME280;3290;47.716;9.070;2024-01-30T07:18:49;98520.22;;;1.80;100.00
6514;BME280;3290;47.716;9.070;2024-01-30T07:21:15;98521.13;;;1.90;100.00
6514;BME280;3290;47.716;9.070;2024-01-30T07:23:40;98520.72;;;2.05;100.00
6514;BME280;3290;47.716;9.070;2024-01-30T07:26:07;98515.38;;;1.86;100.00
6514;BME280;3290;47.716;9.070;2024-01-30T07:28:33;98523.06;;;1.66;100.00
6514;BME280;3290;47.716;9.070;2024-01-30T07:30:59;98521.16;;;1.68;100.00
6514;BME280;3290;47.716;9.070;2024-01-30T07:33:25;98521.16;;;1.68;100.00
6514;BME280;3290;47.716;9.070;2024-01-30T07:35:52;98517.75;;;1.78;100.00
6514;BME280;3290;47.716;9.070;2024-01-30T07:38:17;98523.75;;;1.79;100.00
6514;BME280;3290;47.716;9.070;2024-01-30T07:40:43;98521.41;;;1.76;100.00
6514;BME280;3290;47.716;9.070;2024-01-30T07:43:08;98533.84;;;2.13;100.00
6514;BME280;3290;47.716;9.070;2024-01-30T07:45:34;98527.44;;;1.97;100.00
6514;BME280;3290;47.716;9.070;2024-01-30T07:48:00;98532.38;;;1.89;100.00
6514;BME280;3290;47.716;9.070;2024-01-30T07:50:26;98532.28;;;1.90;100.00
6514;BME280;3290;47.716;9.070;2024-01-30T07:52:51;98536.44;;;1.71;100.00
6514;BME280;3290;47.716;9.070;2024-01-30T07:55:20;98545.19;;;1.90;100.00
6514;BME280;3290;47.716;9.070;2024-01-30T07:57:47;98540.13;;;1.89;100.00
6514;BME280;3290;47.716;9.070;2024-01-30T08:00:12;98540.25;;;1.98;100.00
6514;BME280;3290;47.716;9.070;2024-01-30T08:02:38;98541.28;;;1.96;100.00
6514;BME280;3290;47.716;9.070;2024-01-30T08:05:03;98547.38;;;2.05;100.00
6514;BME280;3290;47.716;9.070;2024-01-30T08:07:29;98542.44;;;2.02;100.00
6514;BME280;3290;47.716;9.070;2024-01-30T08:09:55;98541.88;;;1.99;100.00
6514;BME280;3290;47.716;9.070;2024-01-30T08:12:21;98546.47;;;1.96;100.00
6514;BME280;3290;47.716;9.070;2024-01-30T08:14:46;98548.69;;;2.00;100.00
6514;BME280;3290;47.716;9.070;2024-01-30T08:17:11;98550.66;;;2.07;100.00
6514;BME280;3290;47.716;9.070;2024-01-30T08:19:37;98545.00;;;2.13;100.00
6514;BME280;3290;47.716;9.070;2024-01-30T08:22:02;98547.16;;;1.98;100.00
6514;BME280;3290;47.716;9.070;2024-01-30T08:24:27;98546.22;;;1.98;100.00
6514;BME280;3290;47.716;9.070;2024-01-30T08:26:53;98547.88;;;1.99;100.00
6514;BME280;3290;47.716;9.070;2024-01-30T08:29:18;98547.78;;;1.90;100.00
6514;BME280;3290;47.716;9.070;2024-01-30T08:31:44;98553.06;;;1.89;100.00
6514;BME280;3290;47.716;9.070;2024-01-30T08:34:10;98544.41;;;2.41;100.00
6514;BME280;3290;47.716;9.070;2024-01-30T08:36:36;98551.72;;;2.36;100.00
6514;BME280;3290;47.716;9.070;2024-01-30T08:39:01;98547.94;;;2.40;100.00
6514;BME280;3290;47.716;9.070;2024-01-30T08:41:28;98552.50;;;2.16;100.00
6514;BME280;3290;47.716;9.070;2024-01-30T08:43:53;98550.50;;;2.20;100.00
6514;BME280;3290;47.716;9.070;2024-01-30T08:46:19;98556.19;;;2.34;100.00
6514;BME280;3290;47.716;9.070;2024-01-30T08:48:46;98553.88;;;2.31;100.00
6514;BME280;3290;47.716;9.070;2024-01-30T08:51:11;98563.19;;;2.43;100.00
6514;BME280;3290;47.716;9.070;2024-01-30T08:53:37;98561.56;;;2.11;100.00
6514;BME280;3290;47.716;9.070;2024-01-30T08:56:03;98566.31;;;2.57;100.00
6514;BME280;3290;47.716;9.070;2024-01-30T08:58:29;98560.13;;;2.69;100.00
6514;BME280;3290;47.716;9.070;2024-01-30T09:00:54;98563.34;;;2.41;100.00
6514;BME280;3290;47.716;9.070;2024-01-30T09:03:20;98561.97;;;2.58;100.00
6514;BME280;3290;47.716;9.070;2024-01-30T09:05:47;98568.41;;;2.12;100.00
6514;BME280;3290;47.716;9.070;2024-01-30T09:08:12;98557.97;;;2.34;100.00
6514;BME280;3290;47.716;9.070;2024-01-30T09:10:38;98557.03;;;2.55;100.00
6514;BME280;3290;47.716;9.070;2024-01-30T09:13:03;98565.44;;;2.88;100.00
6514;BME280;3290;47.716;9.070;2024-01-30T09:15:29;98570.66;;;2.57;100.00
6514;BME280;3290;47.716;9.070;2024-01-30T09:17:54;98567.88;;;2.49;100.00
6514;BME280;3290;47.716;9.070;2024-01-30T09:20:19;98567.94;;;2.58;100.00
6514;BME280;3290;47.716;9.070;2024-01-30T09:22:45;98571.88;;;2.73;100.00
6514;BME280;3290;47.716;9.070;2024-01-30T09:25:11;98577.16;;;2.51;100.00
6514;BME280;3290;47.716;9.070;2024-01-30T09:27:36;98572.94;;;2.71;100.00
6514;BME280;3290;47.716;9.070;2024-01-30T09:30:01;98573.88;;;2.90;100.00
6514;BME280;3290;47.716;9.070;2024-01-30T09:32:28;98572.94;;;2.19;100.00
6514;BME280;3290;47.716;9.070;2024-01-30T09:34:53;98573.31;;;2.15;100.00
6514;BME280;3290;47.716;9.070;2024-01-30T09:37:18;98569.16;;;2.23;100.00
6514;BME280;3290;47.716;9.070;2024-01-30T09:39:44;98567.84;;;2.60;100.00
6514;BME280;3290;47.716;9.070;2024-01-30T09:42:28;98573.69;;;3.02;100.00
6514;BME280;3290;47.716;9.070;2024-01-30T09:44:58;98572.88;;;3.02;100.00
6514;BME280;3290;47.716;9.070;2024-01-30T09:47:24;98576.34;;;2.91;100.00
6514;BME280;3290;47.716;9.070;2024-01-30T09:49:50;98575.69;;;2.99;100.00
6514;BME280;3290;47.716;9.070;2024-01-30T09:52:16;98583.81;;;2.65;100.00
6514;BME280;3290;47.716;9.070;2024-01-30T09:54:42;98578.78;;;3.43;100.00
6514;BME280;3290;47.716;9.070;2024-01-30T09:57:08;98579.88;;;2.90;100.00
6514;BME280;3290;47.716;9.070;2024-01-30T09:59:34;98584.91;;;3.12;100.00
6514;BME280;3290;47.716;9.070;2024-01-30T10:02:00;98580.34;;;3.55;100.00
6514;BME280;3290;47.716;9.070;2024-01-30T10:04:26;98576.25;;;3.22;100.00
6514;BME280;3290;47.716;9.070;2024-01-30T10:06:51;98579.75;;;3.42;100.00
6514;BME280;3290;47.716;9.070;2024-01-30T10:09:16;98572.81;;;3.52;100.00
6514;BME280;3290;47.716;9.070;2024-01-30T10:11:42;98579.22;;;3.18;100.00
6514;BME280;3290;47.716;9.070;2024-01-30T10:14:07;98578.88;;;3.32;100.00
6514;BME280;3290;47.716;9.070;2024-01-30T10:16:34;98574.91;;;3.58;100.00
6514;BME280;3290;47.716;9.070;2024-01-30T10:18:59;98578.94;;;2.91;100.00
6514;BME280;3290;47.716;9.070;2024-01-30T10:21:25;98580.81;;;3.10;100.00
6514;BME280;3290;47.716;9.070;2024-01-30T10:23:50;98576.72;;;3.07;100.00
6514;BME280;3290;47.716;9.070;2024-01-30T10:26:16;98573.34;;;3.16;100.00
6514;BME280;3290;47.716;9.070;2024-01-30T10:28:43;98574.25;;;3.65;100.00
6514;BME280;3290;47.716;9.070;2024-01-30T10:31:08;98561.72;;;3.79;100.00
6514;BME280;3290;47.716;9.070;2024-01-30T10:33:34;98564.91;;;3.92;100.00
6514;BME280;3290;47.716;9.070;2024-01-30T10:36:03;98569.00;;;3.85;100.00
6514;BME280;3290;47.716;9.070;2024-01-30T10:38:30;98567.78;;;3.89;100.00
6514;BME280;3290;47.716;9.070;2024-01-30T10:40:57;98567.97;;;3.67;100.00
6514;BME280;3290;47.716;9.070;2024-01-30T10:43:39;98569.56;;;3.98;100.00
6514;BME280;3290;47.716;9.070;2024-01-30T10:48:36;98561.97;;;3.67;100.00
6514;BME280;3290;47.716;9.070;2024-01-30T10:51:08;98556.28;;;3.82;100.00
6514;BME280;3290;47.716;9.070;2024-01-30T10:53:34;98553.13;;;3.69;100.00
6514;BME280;3290;47.716;9.070;2024-01-30T10:56:02;98554.88;;;3.59;100.00
6514;BME280;3290;47.716;9.070;2024-01-30T10:58:28;98548.41;;;3.93;100.00
6514;BME280;3290;47.716;9.070;2024-01-30T11:00:54;98540.53;;;4.41;100.00
6514;BME280;3290;47.716;9.070;2024-01-30T11:03:20;98546.81;;;4.30;100.00
6514;BME280;3290;47.716;9.070;2024-01-30T11:05:49;98544.81;;;3.75;100.00
6514;BME280;3290;47.716;9.070;2024-01-30T11:08:22;98544.56;;;3.97;100.00
6514;BME280;3290;47.716;9.070;2024-01-30T11:10:48;98536.50;;;3.81;100.00
6514;BME280;3290;47.716;9.070;2024-01-30T11:13:15;98540.63;;;3.45;100.00
6514;BME280;3290;47.716;9.070;2024-01-30T11:15:41;98535.56;;;3.82;100.00
6514;BME280;3290;47.716;9.070;2024-01-30T11:18:06;98530.59;;;3.60;100.00
6514;BME280;3290;47.716;9.070;2024-01-30T11:20:32;98530.97;;;4.04;100.00
6514;BME280;3290;47.716;9.070;2024-01-30T11:22:58;98529.59;;;4.47;100.00
6514;BME280;3290;47.716;9.070;2024-01-30T11:25:25;98533.94;;;4.09;100.00
6514;BME280;3290;47.716;9.070;2024-01-30T11:27:53;98531.50;;;4.27;100.00
6514;BME280;3290;47.716;9.070;2024-01-30T11:33:11;98529.03;;;3.97;100.00
6514;BME280;3290;47.716;9.070;2024-01-30T11:35:41;98524.28;;;4.39;100.00
6514;BME280;3290;47.716;9.070;2024-01-30T11:38:09;98516.47;;;4.49;100.00
6514;BME280;3290;47.716;9.070;2024-01-30T11:40:37;98515.91;;;4.55;100.00
6514;BME280;3290;47.716;9.070;2024-01-30T11:43:04;98509.00;;;4.27;100.00
6514;BME280;3290;47.716;9.070;2024-01-30T11:45:31;98510.53;;;4.84;100.00
6514;BME280;3290;47.716;9.070;2024-01-30T11:47:56;98513.31;;;4.74;100.00
6514;BME280;3290;47.716;9.070;2024-01-30T11:50:23;98501.28;;;4.82;100.00
6514;BME280;3290;47.716;9.070;2024-01-30T11:52:50;98503.34;;;4.60;100.00
6514;BME280;3290;47.716;9.070;2024-01-30T11:55:15;98495.69;;;4.58;100.00
6514;BME280;3290;47.716;9.070;2024-01-30T11:57:41;98485.13;;;4.24;100.00
6514;BME280;3290;47.716;9.070;2024-01-30T12:00:14;98493.25;;;4.66;100.00
6514;BME280;3290;47.716;9.070;2024-01-30T12:02:40;98491.09;;;4.98;100.00
6514;BME280;3290;47.716;9.070;2024-01-30T12:05:06;98488.00;;;5.48;100.00
6514;BME280;3290;47.716;9.070;2024-01-30T12:07:32;98486.28;;;5.65;100.00
6514;BME280;3290;47.716;9.070;2024-01-30T12:09:58;98489.31;;;5.61;100.00
6514;BME280;3290;47.716;9.070;2024-01-30T12:12:25;98489.22;;;5.26;100.00
6514;BME280;3290;47.716;9.070;2024-01-30T12:14:51;98492.97;;;5.15;100.00
6514;BME280;3290;47.716;9.070;2024-01-30T12:17:30;98490.38;;;5.15;100.00
6514;BME280;3290;47.716;9.070;2024-01-30T12:22:42;98478.44;;;5.48;100.00
6514;BME280;3290;47.716;9.070;2024-01-30T12:25:12;98476.53;;;5.94;100.00
6514;BME280;3290;47.716;9.070;2024-01-30T12:27:38;98471.47;;;5.93;100.00
6514;BME280;3290;47.716;9.070;2024-01-30T12:30:11;98475.13;;;5.56;100.00
6514;BME280;3290;47.716;9.070;2024-01-30T12:32:39;98472.09;;;5.60;100.00
6514;BME280;3290;47.716;9.070;2024-01-30T12:35:16;98468.75;;;5.67;100.00
6514;BME280;3290;47.716;9.070;2024-01-30T12:37:43;98467.44;;;5.63;100.00
6514;BME280;3290;47.716;9.070;2024-01-30T12:40:09;98469.25;;;5.80;99.90
6514;BME280;3290;47.716;9.070;2024-01-30T12:42:35;98461.78;;;5.68;100.00
6514;BME280;3290;47.716;9.070;2024-01-30T12:45:04;98468.31;;;5.98;100.00
6514;BME280;3290;47.716;9.070;2024-01-30T12:47:30;98467.25;;;5.92;100.00
6514;BME280;3290;47.716;9.070;2024-01-30T12:49:56;98460.13;;;5.94;99.77
6514;BME280;3290;47.716;9.070;2024-01-30T12:52:21;98460.84;;;6.03;100.00
6514;BME280;3290;47.716;9.070;2024-01-30T12:54:48;98462.06;;;5.92;100.00
6514;BME280;3290;47.716;9.070;2024-01-30T12:57:13;98463.22;;;5.80;100.00
6514;BME280;3290;47.716;9.070;2024-01-30T12:59:39;98458.84;;;6.15;100.00
6514;BME280;3290;47.716;9.070;2024-01-30T13:02:05;98459.09;;;5.87;100.00
6514;BME280;3290;47.716;9.070;2024-01-30T13:04:31;98460.19;;;6.01;100.00
6514;BME280;3290;47.716;9.070;2024-01-30T13:06:56;98455.78;;;6.19;100.00
6514;BME280;3290;47.716;9.070;2024-01-30T13:09:22;98449.31;;;6.40;98.99
6514;BME280;3290;47.716;9.070;2024-01-30T13:11:47;98447.63;;;7.07;99.75
6514;BME280;3290;47.716;9.070;2024-01-30T13:14:13;98445.56;;;7.67;93.96
6514;BME280;3290;47.716;9.070;2024-01-30T13:16:38;98441.16;;;6.86;95.80
6514;BME280;3290;47.716;9.070;2024-01-30T13:19:03;98446.56;;;7.25;96.52
6514;BME280;3290;47.716;9.070;2024-01-30T13:21:29;98456.69;;;6.95;96.94
6514;BME280;3290;47.716;9.070;2024-01-30T13:23:54;98444.38;;;7.05;96.19